sensor_id;sensor_type;location;lat;lon;timestamp;pressure;altitude;pressure_sealevel;temperature;humidity
22206;BME280;11272;50.104;8.754;2022-12-31T00:01:05;100027.41;;;13.39;100.00
22206;BME280;11272;50.104;8.754;2022-12-31T00:03:32;100042.41;;;13.42;100.00
22206;BME280;11272;50.104;8.754;2022-12-31T00:05:57;100031.69;;;13.43;100.00
22206;BME280;11272;50.104;8.754;2022-12-31T00:08:23;100034.16;;;13.48;100.00
22206;BME280;11272;50.104;8.754;2022-12-31T00:10:48;100027.75;;;13.52;100.00
22206;BME280;11272;50.104;8.754;2022-12-31T00:13:15;100033.00;;;13.55;100.00
22206;BME280;11272;50.104;8.754;2022-12-31T00:15:41;100040.00;;;13.58;100.00
22206;BME280;11272;50.104;8.754;2022-12-31T00:18:08;100031.94;;;13.59;100.00
22206;BME280;11272;50.104;8.754;2022-12-31T00:20:37;100033.53;;;13.63;100.00
22206;BME280;11272;50.104;8.754;2022-12-31T00:23:03;100034.41;;;13.64;100.00
22206;BME280;11272;50.104;8.754;2022-12-31T00:25:29;100040.63;;;13.64;100.00
22206;BME280;11272;50.104;8.754;2022-12-31T00:27:55;100039.66;;;13.67;100.00
22206;BME280;11272;50.104;8.754;2022-12-31T00:30:20;100031.50;;;13.70;100.00
22206;BME280;11272;50.104;8.754;2022-12-31T00:32:46;100025.25;;;13.71;100.00
22206;BME280;11272;50.104;8.754;2022-12-31T00:35:11;100030.44;;;13.74;100.00
22206;BME280;11272;50.104;8.754;2022-12-31T00:37:37;100019.75;;;13.74;100.00
22206;BME280;11272;50.104;8.754;2022-12-31T00:40:03;100024.06;;;13.78;100.00
22206;BME280;11272;50.104;8.754;2022-12-31T00:42:29;100023.94;;;13.81;100.00
22206;BME280;11272;50.104;8.754;2022-12-31T00:44:55;100032.81;;;13.81;100.00
22206;BME280;11272;50.104;8.754;2022-12-31T00:47:20;100023.06;;;13.80;100.00
22206;BME280;11272;50.104;8.754;2022-12-31T00:49:48;100023.88;;;13.82;100.00
22206;BME280;11272;50.104;8.754;2022-12-31T00:52:13;100017.53;;;13.85;100.00
22206;BME280;11272;50.104;8.754;2022-12-31T00:54:41;100024.56;;;13.87;100.00
22206;BME280;11272;50.104;8.754;2022-12-31T00:57:07;100022.75;;;13.88;100.00
22206;BME280;11272;50.104;8.754;2022-12-31T00:59:32;100028.97;;;13.88;100.00
22206;BME280;11272;50.104;8.754;2022-12-31T01:01:57;100033.44;;;13.88;100.00
22206;BME280;11272;50.104;8.754;2022-12-31T01:04:23;100045.81;;;13.89;100.00
22206;BME280;11272;50.104;8.754;2022-12-31T01:06:48;100049.31;;;13.91;100.00
22206;BME280;11272;50.104;8.754;2022-12-31T01:09:15;100051.91;;;13.93;100.00
22206;BME280;11272;50.104;8.754;2022-12-31T01:11:41;100050.13;;;13.93;100.00
22206;BME280;11272;50.104;8.754;2022-12-31T01:14:09;100060.56;;;13.99;100.00
22206;BME280;11272;50.104;8.754;2022-12-31T01:16:38;100056.81;;;14.03;100.00
22206;BME280;11272;50.104;8.754;2022-12-31T01:19:07;100054.16;;;14.03;100.00
22206;BME280;11272;50.104;8.754;2022-12-31T01:21:34;100054.16;;;14.03;100.00
22206;BME280;11272;50.104;8.754;2022-12-31T01:24:00;100056.75;;;14.05;100.00
22206;BME280;11272;50.104;8.754;2022-12-31T01:26:27;100065.59;;;14.05;100.00
22206;BME280;11272;50.104;8.754;2022-12-31T01:28:52;100070.94;;;14.05;100.00
22206;BME280;11272;50.104;8.754;2022-12-31T01:31:19;100070.16;;;14.03;100.00
22206;BME280;11272;50.104;8.754;2022-12-31T01:33:46;100071.97;;;14.03;100.00
22206;BME280;11272;50.104;8.754;2022-12-31T01:36:15;100065.81;;;14.01;100.00
22206;BME280;11272;50.104;8.754;2022-12-31T01:38:41;100065.81;;;14.01;100.00
22206;BME280;11272;50.104;8.754;2022-12-31T01:41:11;100064.00;;;14.01;100.00
22206;BME280;11272;50.104;8.754;2022-12-31T01:46:18;100064.78;;;14.05;100.00
22206;BME280;11272;50.104;8.754;2022-12-31T01:48:48;100065.56;;;14.07;100.00
22206;BME280;11272;50.104;8.754;2022-12-31T01:51:15;100076.13;;;14.10;100.00
22206;BME280;11272;50.104;8.754;2022-12-31T01:53:41;100063.56;;;14.12;100.00
22206;BME280;11272;50.104;8.754;2022-12-31T01:56:09;100059.09;;;14.12;100.00
22206;BME280;11272;50.104;8.754;2022-12-31T01:58:39;100076.00;;;14.13;100.00
22206;BME280;11272;50.104;8.754;2022-12-31T02:01:06;100074.19;;;14.13;100.00
22206;BME280;11272;50.104;8.754;2022-12-31T02:03:33;100058.09;;;14.15;100.00
22206;BME280;11272;50.104;8.754;2022-12-31T02:06:21;100061.56;;;14.17;100.00
22206;BME280;11272;50.104;8.754;2022-12-31T02:08:50;100058.91;;;14.17;100.00
22206;BME280;11272;50.104;8.754;2022-12-31T02:11:25;100054.44;;;14.17;100.00
22206;BME280;11272;50.104;8.754;2022-12-31T02:13:53;100054.44;;;14.17;100.00
22206;BME280;11272;50.104;8.754;2022-12-31T02:19:10;100053.25;;;14.24;99.53
22206;BME280;11272;50.104;8.754;2022-12-31T02:24:25;100045.28;;;14.23;99.35
22206;BME280;11272;50.104;8.754;2022-12-31T02:26:59;100038.19;;;14.22;99.26
22206;BME280;11272;50.104;8.754;2022-12-31T02:32:13;100041.94;;;14.18;99.07
22206;BME280;11272;50.104;8.754;2022-12-31T02:34:56;100038.34;;;14.19;99.06
22206;BME280;11272;50.104;8.754;2022-12-31T02:37:26;100041.88;;;14.19;99.57
22206;BME280;11272;50.104;8.754;2022-12-31T02:39:54;100045.34;;;14.21;99.24
22206;BME280;11272;50.104;8.754;2022-12-31T02:42:20;100050.63;;;14.23;99.31
22206;BME280;11272;50.104;8.754;2022-12-31T02:44:45;100040.66;;;14.26;99.41
22206;BME280;11272;50.104;8.754;2022-12-31T02:47:41;100047.41;;;14.37;98.67
22206;BME280;11272;50.104;8.754;2022-12-31T02:56:21;100063.75;;;14.49;97.60
22206;BME280;11272;50.104;8.754;2022-12-31T03:02:00;100060.63;;;14.60;96.74
22206;BME280;11272;50.104;8.754;2022-12-31T03:04:43;100033.63;;;14.66;96.33
22206;BME280;11272;50.104;8.754;2022-12-31T03:07:13;100058.28;;;14.72;95.28
22206;BME280;11272;50.104;8.754;2022-12-31T03:09:39;100051.94;;;14.75;95.39
22206;BME280;11272;50.104;8.754;2022-12-31T03:12:06;100046.25;;;14.83;93.64
22206;BME280;11272;50.104;8.754;2022-12-31T03:14:52;100049.78;;;14.83;93.37
22206;BME280;11272;50.104;8.754;2022-12-31T03:17:17;100052.31;;;14.86;93.32
22206;BME280;11272;50.104;8.754;2022-12-31T03:19:43;100053.19;;;14.87;93.43
22206;BME280;11272;50.104;8.754;2022-12-31T03:22:27;100047.84;;;14.87;92.94
22206;BME280;11272;50.104;8.754;2022-12-31T03:24:56;100048.72;;;14.87;92.73
22206;BME280;11272;50.104;8.754;2022-12-31T03:27:41;100051.31;;;14.89;92.43
22206;BME280;11272;50.104;8.754;2022-12-31T03:30:07;100061.16;;;14.88;92.31
22206;BME280;11272;50.104;8.754;2022-12-31T03:32:33;100057.44;;;14.91;92.04
22206;BME280;11272;50.104;8.754;2022-12-31T03:34:58;100069.00;;;14.91;91.37
22206;BME280;11272;50.104;8.754;2022-12-31T03:37:25;100075.03;;;14.96;91.02
22206;BME280;11272;50.104;8.754;2022-12-31T03:39:50;100065.19;;;14.97;90.84
22206;BME280;11272;50.104;8.754;2022-12-31T03:42:16;100075.63;;;15.03;90.00
22206;BME280;11272;50.104;8.754;2022-12-31T03:44:41;100074.63;;;15.05;90.08
22206;BME280;11272;50.104;8.754;2022-12-31T03:47:07;100085.19;;;15.08;90.33
22206;BME280;11272;50.104;8.754;2022-12-31T03:49:32;100082.50;;;15.08;90.23
22206;BME280;11272;50.104;8.754;2022-12-31T03:51:58;100083.31;;;15.10;90.15
22206;BME280;11272;50.104;8.754;2022-12-31T03:54:23;100082.38;;;15.11;90.24
22206;BME280;11272;50.104;8.754;2022-12-31T03:56:49;100084.91;;;15.14;89.93
22206;BME280;11272;50.104;8.754;2022-12-31T03:59:14;100088.28;;;15.18;90.21
22206;BME280;11272;50.104;8.754;2022-12-31T04:01:40;100088.06;;;15.23;89.65
22206;BME280;11272;50.104;8.754;2022-12-31T04:04:05;100096.84;;;15.26;89.40
22206;BME280;11272;50.104;8.754;2022-12-31T04:06:31;100111.00;;;15.28;89.15
22206;BME280;11272;50.104;8.754;2022-12-31T04:08:56;100109.19;;;15.29;89.12
22206;BME280;11272;50.104;8.754;2022-12-31T04:11:22;100105.59;;;15.30;88.76
22206;BME280;11272;50.104;8.754;2022-12-31T04:13:47;100107.28;;;15.32;88.46
22206;BME280;11272;50.104;8.754;2022-12-31T04:16:13;100115.31;;;15.32;88.13
22206;BME280;11272;50.104;8.754;2022-12-31T04:18:38;100109.06;;;15.32;88.01
22206;BME280;11272;50.104;8.754;2022-12-31T04:21:04;100100.25;;;15.30;88.13
22206;BME280;11272;50.104;8.754;2022-12-31T04:23:30;100111.88;;;15.29;88.11
22206;BME280;11272;50.104;8.754;2022-12-31T04:25:56;100120.56;;;15.34;87.46
22206;BME280;11272;50.104;8.754;2022-12-31T04:28:22;100118.75;;;15.34;87.65
22206;BME280;11272;50.104;8.754;2022-12-31T04:30:48;100132.06;;;15.36;87.53
22206;BME280;11272;50.104;8.754;2022-12-31T04:33:13;100120.44;;;15.37;87.72
22206;BME280;11272;50.104;8.754;2022-12-31T04:35:39;100112.47;;;15.35;88.30
22206;BME280;11272;50.104;8.754;2022-12-31T04:38:04;100116.16;;;15.33;88.14
22206;BME280;11272;50.104;8.754;2022-12-31T04:40:30;100124.97;;;15.35;87.95
22206;BME280;11272;50.104;8.754;2022-12-31T04:42:55;100132.72;;;15.41;87.90
22206;BME280;11272;50.104;8.754;2022-12-31T04:45:21;100129.91;;;15.44;87.14
22206;BME280;11272;50.104;8.754;2022-12-31T04:47:46;100139.81;;;15.42;86.96
22206;BME280;11272;50.104;8.754;2022-12-31T04:50:11;100126.28;;;15.45;86.50
22206;BME280;11272;50.104;8.754;2022-12-31T04:52:37;100122.56;;;15.49;86.29
22206;BME280;11272;50.104;8.754;2022-12-31T04:55:03;100124.25;;;15.50;86.31
22206;BME280;11272;50.104;8.754;2022-12-31T04:57:28;100121.59;;;15.50;85.98
22206;BME280;11272;50.104;8.754;2022-12-31T04:59:54;100129.53;;;15.53;85.96
22206;BME280;11272;50.104;8.754;2022-12-31T05:02:19;100130.47;;;15.52;85.56
22206;BME280;11272;50.104;8.754;2022-12-31T05:04:45;100125.22;;;15.49;85.60
22206;BME280;11272;50.104;8.754;2022-12-31T05:07:12;100135.13;;;15.47;86.05
22206;BME280;11272;50.104;8.754;2022-12-31T05:09:37;100143.09;;;15.48;86.10
22206;BME280;11272;50.104;8.754;2022-12-31T05:12:03;100147.31;;;15.54;86.18
22206;BME280;11272;50.104;8.754;2022-12-31T05:14:28;100153.34;;;15.59;85.72
22206;BME280;11272;50.104;8.754;2022-12-31T05:16:54;100152.38;;;15.60;85.57
22206;BME280;11272;50.104;8.754;2022-12-31T05:19:19;100150.50;;;15.62;84.97
22206;BME280;11272;50.104;8.754;2022-12-31T05:21:46;100158.41;;;15.65;84.99
22206;BME280;11272;50.104;8.754;2022-12-31T05:24:32;100154.47;;;15.72;84.51
22206;BME280;11272;50.104;8.754;2022-12-31T05:26:57;100160.41;;;15.79;83.99
22206;BME280;11272;50.104;8.754;2022-12-31T05:29:23;100158.56;;;15.81;83.55
22206;BME280;11272;50.104;8.754;2022-12-31T05:31:48;100155.78;;;15.82;83.76
22206;BME280;11272;50.104;8.754;2022-12-31T05:34:14;100167.28;;;15.84;83.66
22206;BME280;11272;50.104;8.754;2022-12-31T05:36:39;100152.81;;;15.88;83.21
22206;BME280;11272;50.104;8.754;2022-12-31T05:39:05;100156.19;;;15.92;83.32
22206;BME280;11272;50.104;8.754;2022-12-31T05:41:30;100149.03;;;15.92;82.80
22206;BME280;11272;50.104;8.754;2022-12-31T05:43:56;100143.63;;;15.94;82.56
22206;BME280;11272;50.104;8.754;2022-12-31T05:46:21;100139.78;;;15.99;82.15
22206;BME280;11272;50.104;8.754;2022-12-31T05:48:47;100138.84;;;16.00;81.68
22206;BME280;11272;50.104;8.754;2022-12-31T05:51:12;100141.53;;;16.00;81.85
22206;BME280;11272;50.104;8.754;2022-12-31T05:53:37;100156.66;;;16.02;81.67
22206;BME280;11272;50.104;8.754;2022-12-31T05:56:03;100148.75;;;15.98;81.58
22206;BME280;11272;50.104;8.754;2022-12-31T05:58:29;100147.97;;;15.96;81.19
22206;BME280;11272;50.104;8.754;2022-12-31T06:00:54;100153.34;;;15.96;81.12
22206;BME280;11272;50.104;8.754;2022-12-31T06:03:20;100150.56;;;15.98;81.42
22206;BME280;11272;50.104;8.754;2022-12-31T06:05:45;100161.22;;;15.99;81.30
22206;BME280;11272;50.104;8.754;2022-12-31T06:08:11;100168.53;;;15.96;81.01
22206;BME280;11272;50.104;8.754;2022-12-31T06:10:37;100181.13;;;15.94;81.13
22206;BME280;11272;50.104;8.754;2022-12-31T06:13:03;100179.31;;;15.94;81.27
22206;BME280;11272;50.104;8.754;2022-12-31T06:15:29;100172.84;;;15.98;80.80
22206;BME280;11272;50.104;8.754;2022-12-31T06:17:54;100184.38;;;16.00;80.59
22206;BME280;11272;50.104;8.754;2022-12-31T06:20:20;100189.56;;;16.04;80.24
22206;BME280;11272;50.104;8.754;2022-12-31T06:22:45;100201.81;;;16.09;80.36
22206;BME280;11272;50.104;8.754;2022-12-31T06:25:11;100200.81;;;16.12;80.29
22206;BME280;11272;50.104;8.754;2022-12-31T06:27:37;100196.38;;;16.11;80.56
22206;BME280;11272;50.104;8.754;2022-12-31T06:30:03;100197.97;;;16.15;80.77
22206;BME280;11272;50.104;8.754;2022-12-31T06:32:29;100199.56;;;16.19;80.28
22206;BME280;11272;50.104;8.754;2022-12-31T06:34:55;100199.34;;;16.23;79.94
22206;BME280;11272;50.104;8.754;2022-12-31T06:37:20;100209.84;;;16.28;79.32
22206;BME280;11272;50.104;8.754;2022-12-31T06:39:46;100207.88;;;16.31;79.06
22206;BME280;11272;50.104;8.754;2022-12-31T06:42:12;100223.81;;;16.34;78.87
22206;BME280;11272;50.104;8.754;2022-12-31T06:44:38;100219.19;;;16.38;78.38
22206;BME280;11272;50.104;8.754;2022-12-31T06:47:04;100224.47;;;16.39;78.39
22206;BME280;11272;50.104;8.754;2022-12-31T06:49:29;100214.69;;;16.38;78.33
22206;BME280;11272;50.104;8.754;2022-12-31T06:51:55;100227.00;;;16.42;78.08
22206;BME280;11272;50.104;8.754;2022-12-31T06:54:20;100212.59;;;16.45;77.85
22206;BME280;11272;50.104;8.754;2022-12-31T06:56:46;100219.66;;;16.46;77.90
22206;BME280;11272;50.104;8.754;2022-12-31T06:59:21;100218.59;;;16.50;77.28
22206;BME280;11272;50.104;8.754;2022-12-31T07:05:04;100222.03;;;16.52;77.17
22206;BME280;11272;50.104;8.754;2022-12-31T07:08:00;100222.97;;;16.51;77.41
22206;BME280;11272;50.104;8.754;2022-12-31T07:10:50;100209.81;;;16.47;77.36
22206;BME280;11272;50.104;8.754;2022-12-31T07:13:31;100216.03;;;16.47;77.16
22206;BME280;11272;50.104;8.754;2022-12-31T07:16:35;100225.13;;;16.45;77.59
22206;BME280;11272;50.104;8.754;2022-12-31T07:19:18;100246.41;;;16.48;77.44
22206;BME280;11272;50.104;8.754;2022-12-31T07:21:52;100234.50;;;16.53;76.95
22206;BME280;11272;50.104;8.754;2022-12-31T07:24:18;100240.69;;;16.55;76.80
22206;BME280;11272;50.104;8.754;2022-12-31T07:27:26;100233.63;;;16.53;76.83
22206;BME280;11272;50.104;8.754;2022-12-31T07:30:05;100252.63;;;16.48;76.98
22206;BME280;11272;50.104;8.754;2022-12-31T07:43:47;100255.53;;;16.62;75.61
22206;BME280;11272;50.104;8.754;2022-12-31T07:46:48;100259.81;;;16.66;75.54
22206;BME280;11272;50.104;8.754;2022-12-31T07:49:16;100264.22;;;16.67;75.64
22206;BME280;11272;50.104;8.754;2022-12-31T07:51:42;100269.38;;;16.72;75.10
22206;BME280;11272;50.104;8.754;2022-12-31T07:54:07;100256.75;;;16.74;74.90
22206;BME280;11272;50.104;8.754;2022-12-31T07:56:33;100269.28;;;16.73;74.92
22206;BME280;11272;50.104;8.754;2022-12-31T08:01:49;100281.09;;;16.69;75.33
22206;BME280;11272;50.104;8.754;2022-12-31T08:04:30;100269.56;;;16.67;75.23
22206;BME280;11272;50.104;8.754;2022-12-31T08:12:26;100283.78;;;16.69;74.09
22206;BME280;11272;50.104;8.754;2022-12-31T08:14:55;100282.22;;;16.65;74.23
22206;BME280;11272;50.104;8.754;2022-12-31T08:17:21;100297.34;;;16.66;73.77
22206;BME280;11272;50.104;8.754;2022-12-31T08:19:47;100293.56;;;16.70;73.26
22206;BME280;11272;50.104;8.754;2022-12-31T08:22:36;100308.78;;;16.70;73.71
22206;BME280;11272;50.104;8.754;2022-12-31T08:25:18;100314.09;;;16.71;73.48
22206;BME280;11272;50.104;8.754;2022-12-31T08:30:27;100323.78;;;16.74;73.28
22206;BME280;11272;50.104;8.754;2022-12-31T08:33:13;100317.47;;;16.75;72.75
22206;BME280;11272;50.104;8.754;2022-12-31T08:36:00;100303.13;;;16.76;72.80
22206;BME280;11272;50.104;8.754;2022-12-31T08:41:43;100304.88;;;16.77;72.01
22206;BME280;11272;50.104;8.754;2022-12-31T08:49:54;100309.22;;;16.79;71.79
22206;BME280;11272;50.104;8.754;2022-12-31T08:52:25;100311.03;;;16.79;71.22
22206;BME280;11272;50.104;8.754;2022-12-31T08:54:51;100314.56;;;16.79;71.39
22206;BME280;11272;50.104;8.754;2022-12-31T08:59:47;100307.34;;;16.81;71.56
22206;BME280;11272;50.104;8.754;2022-12-31T09:02:25;100311.81;;;16.81;71.38
22206;BME280;11272;50.104;8.754;2022-12-31T09:05:25;100321.69;;;16.80;71.79
22206;BME280;11272;50.104;8.754;2022-12-31T09:08:15;100327.84;;;16.82;71.64
22206;BME280;11272;50.104;8.754;2022-12-31T09:14:24;100319.66;;;16.86;70.89
22206;BME280;11272;50.104;8.754;2022-12-31T09:17:04;100333.94;;;16.86;70.56
22206;BME280;11272;50.104;8.754;2022-12-31T09:25:59;100340.75;;;16.93;70.23
22206;BME280;11272;50.104;8.754;2022-12-31T09:28:41;100335.16;;;16.98;70.33
22206;BME280;11272;50.104;8.754;2022-12-31T09:31:21;100342.91;;;17.04;69.97
22206;BME280;11272;50.104;8.754;2022-12-31T09:34:03;100353.31;;;17.10;70.11
22206;BME280;11272;50.104;8.754;2022-12-31T09:36:40;100358.22;;;17.19;70.10
22206;BME280;11272;50.104;8.754;2022-12-31T09:39:15;100356.19;;;17.24;69.58
22206;BME280;11272;50.104;8.754;2022-12-31T09:42:29;100364.06;;;17.27;69.14
22206;BME280;11272;50.104;8.754;2022-12-31T09:59:29;100363.91;;;17.83;67.50
22206;BME280;11272;50.104;8.754;2022-12-31T10:02:07;100347.13;;;17.95;67.13
22206;BME280;11272;50.104;8.754;2022-12-31T10:07:42;100349.75;;;18.45;66.28
22206;BME280;11272;50.104;8.754;2022-12-31T10:10:21;100348.69;;;18.81;65.87
22206;BME280;11272;50.104;8.754;2022-12-31T10:12:57;100361.97;;;19.15;65.05
22206;BME280;11272;50.104;8.754;2022-12-31T10:23:50;100346.06;;;19.86;61.22
22206;BME280;11272;50.104;8.754;2022-12-31T10:27:08;100348.69;;;20.02;60.53
22206;BME280;11272;50.104;8.754;2022-12-31T10:29:45;100354.25;;;19.99;60.24
22206;BME280;11272;50.104;8.754;2022-12-31T10:32:20;100348.03;;;20.12;59.49
22206;BME280;11272;50.104;8.754;2022-12-31T10:37:43;100361.25;;;20.31;58.89
22206;BME280;11272;50.104;8.754;2022-12-31T10:40:43;100355.34;;;20.25;58.09
22206;BME280;11272;50.104;8.754;2022-12-31T10:48:37;100374.84;;;20.44;57.83
22206;BME280;11272;50.104;8.754;2022-12-31T11:16:21;100378.13;;;21.18;55.20
22206;BME280;11272;50.104;8.754;2022-12-31T11:18:59;100378.41;;;21.14;54.89
22206;BME280;11272;50.104;8.754;2022-12-31T11:30:31;100387.25;;;20.18;56.20
22206;BME280;11272;50.104;8.754;2022-12-31T11:41:52;100372.78;;;20.19;56.74
22206;BME280;11272;50.104;8.754;2022-12-31T11:48:26;100368.19;;;20.49;56.36
22206;BME280;11272;50.104;8.754;2022-12-31T11:50:41;100369.63;;;20.69;56.02
22206;BME280;11272;50.104;8.754;2022-12-31T11:53:33;100366.25;;;20.66;55.56
22206;BME280;11272;50.104;8.754;2022-12-31T11:58:29;100357.47;;;20.62;55.04
22206;BME280;11272;50.104;8.754;2022-12-31T12:01:04;100340.56;;;20.46;55.01
22206;BME280;11272;50.104;8.754;2022-12-31T12:03:32;100353.56;;;20.39;55.61
22206;BME280;11272;50.104;8.754;2022-12-31T12:06:02;100343.63;;;20.54;55.50
22206;BME280;11272;50.104;8.754;2022-12-31T12:08:30;100346.75;;;20.75;55.21
22206;BME280;11272;50.104;8.754;2022-12-31T12:11:06;100359.16;;;20.91;54.53
22206;BME280;11272;50.104;8.754;2022-12-31T12:13:32;100337.63;;;21.04;54.25
22206;BME280;11272;50.104;8.754;2022-12-31T12:16:00;100336.75;;;21.18;54.09
22206;BME280;11272;50.104;8.754;2022-12-31T12:18:50;100340.38;;;21.31;54.08
22206;BME280;11272;50.104;8.754;2022-12-31T12:21:25;100348.09;;;21.50;53.58
22206;BME280;11272;50.104;8.754;2022-12-31T12:24:14;100334.06;;;21.57;53.04
22206;BME280;11272;50.104;8.754;2022-12-31T12:26:43;100328.44;;;21.60;53.41
22206;BME280;11272;50.104;8.754;2022-12-31T12:29:14;100313.53;;;21.67;52.95
22206;BME280;11272;50.104;8.754;2022-12-31T12:31:41;100322.31;;;21.83;52.80
22206;BME280;11272;50.104;8.754;2022-12-31T12:34:31;100335.78;;;22.10;52.35
22206;BME280;11272;50.104;8.754;2022-12-31T12:36:58;100326.09;;;21.94;52.14
22206;BME280;11272;50.104;8.754;2022-12-31T12:39:32;100312.97;;;21.75;51.63
22206;BME280;11272;50.104;8.754;2022-12-31T12:45:04;100331.81;;;21.37;52.18
22206;BME280;11272;50.104;8.754;2022-12-31T12:47:31;100325.69;;;21.35;51.85
22206;BME280;11272;50.104;8.754;2022-12-31T12:49:58;100322.94;;;21.22;51.50
22206;BME280;11272;50.104;8.754;2022-12-31T12:55:26;100313.22;;;21.20;51.84
22206;BME280;11272;50.104;8.754;2022-12-31T12:58:34;100312.91;;;21.24;52.14
22206;BME280;11272;50.104;8.754;2022-12-31T13:12:17;100322.19;;;21.06;52.28
22206;BME280;11272;50.104;8.754;2022-12-31T13:15:11;100325.66;;;20.81;52.31
22206;BME280;11272;50.104;8.754;2022-12-31T13:28:21;100323.66;;;20.28;53.12
22206;BME280;11272;50.104;8.754;2022-12-31T13:30:52;100327.41;;;20.26;53.03
22206;BME280;11272;50.104;8.754;2022-12-31T13:33:27;100325.50;;;20.28;53.34
22206;BME280;11272;50.104;8.754;2022-12-31T13:35:58;100327.78;;;20.19;52.81
22206;BME280;11272;50.104;8.754;2022-12-31T13:38:33;100319.03;;;20.02;53.01
22206;BME280;11272;50.104;8.754;2022-12-31T13:49:01;100306.78;;;20.25;53.16
22206;BME280;11272;50.104;8.754;2022-12-31T13:51:43;100304.38;;;20.20;52.88
22206;BME280;11272;50.104;8.754;2022-12-31T13:54:23;100295.34;;;20.07;53.19
22206;BME280;11272;50.104;8.754;2022-12-31T13:56:52;100295.72;;;20.01;53.37
22206;BME280;11272;50.104;8.754;2022-12-31T13:59:30;100299.88;;;19.92;53.38
22206;BME280;11272;50.104;8.754;2022-12-31T14:02:35;100303.31;;;19.80;53.49
22206;BME280;11272;50.104;8.754;2022-12-31T14:05:14;100287.81;;;19.69;53.79
22206;BME280;11272;50.104;8.754;2022-12-31T14:07:49;100287.50;;;19.60;53.89
22206;BME280;11272;50.104;8.754;2022-12-31T14:10:20;100303.25;;;19.52;53.88
22206;BME280;11272;50.104;8.754;2022-12-31T14:13:12;100289.44;;;19.42;53.74
22206;BME280;11272;50.104;8.754;2022-12-31T14:21:27;100331.78;;;19.24;54.16
22206;BME280;11272;50.104;8.754;2022-12-31T14:24:12;100329.47;;;19.18;54.65
22206;BME280;11272;50.104;8.754;2022-12-31T14:26:43;100334.09;;;19.16;54.45
22206;BME280;11272;50.104;8.754;2022-12-31T14:37:16;100345.81;;;19.00;54.87
22206;BME280;11272;50.104;8.754;2022-12-31T14:39:55;100355.91;;;18.96;54.92
22206;BME280;11272;50.104;8.754;2022-12-31T14:42:45;100353.56;;;18.90;55.03
22206;BME280;11272;50.104;8.754;2022-12-31T14:50:33;100341.41;;;18.83;54.93
22206;BME280;11272;50.104;8.754;2022-12-31T14:55:36;100342.69;;;18.76;55.01
22206;BME280;11272;50.104;8.754;2022-12-31T14:58:19;100354.44;;;18.75;54.80
22206;BME280;11272;50.104;8.754;2022-12-31T15:00:54;100348.25;;;18.73;54.84
22206;BME280;11272;50.104;8.754;2022-12-31T15:03:31;100356.50;;;18.70;55.05
22206;BME280;11272;50.104;8.754;2022-12-31T15:14:39;100369.28;;;18.49;55.20
22206;BME280;11272;50.104;8.754;2022-12-31T15:17:22;100366.09;;;18.42;55.53
22206;BME280;11272;50.104;8.754;2022-12-31T15:20:04;100364.50;;;18.38;55.32
22206;BME280;11272;50.104;8.754;2022-12-31T15:22:47;100368.31;;;18.34;55.29
22206;BME280;11272;50.104;8.754;2022-12-31T15:25:46;100372.28;;;18.27;55.68
22206;BME280;11272;50.104;8.754;2022-12-31T15:28:30;100364.19;;;18.27;55.56
22206;BME280;11272;50.104;8.754;2022-12-31T15:31:21;100367.94;;;18.25;55.63
22206;BME280;11272;50.104;8.754;2022-12-31T15:36:25;100368.34;;;18.17;55.64
22206;BME280;11272;50.104;8.754;2022-12-31T15:39:04;100370.16;;;18.17;55.53
22206;BME280;11272;50.104;8.754;2022-12-31T15:41:47;100372.78;;;18.18;55.58
22206;BME280;11272;50.104;8.754;2022-12-31T15:44:41;100371.03;;;18.17;55.32
22206;BME280;11272;50.104;8.754;2022-12-31T15:47:30;100371.13;;;18.16;55.45
22206;BME280;11272;50.104;8.754;2022-12-31T15:50:02;100372.00;;;18.16;55.49
22206;BME280;11272;50.104;8.754;2022-12-31T15:54:55;100372.47;;;18.07;55.96
22206;BME280;11272;50.104;8.754;2022-12-31T15:57:29;100377.22;;;18.02;55.81
22206;BME280;11272;50.104;8.754;2022-12-31T16:00:03;100372.78;;;18.01;55.78
22206;BME280;11272;50.104;8.754;2022-12-31T16:02:33;100381.03;;;17.98;55.62
22206;BME280;11272;50.104;8.754;2022-12-31T16:04:59;100383.91;;;17.95;56.00
22206;BME280;11272;50.104;8.754;2022-12-31T16:07:26;100385.94;;;17.90;56.14
22206;BME280;11272;50.104;8.754;2022-12-31T16:09:54;100393.53;;;17.82;56.34
22206;BME280;11272;50.104;8.754;2022-12-31T16:12:23;100390.03;;;17.80;56.38
22206;BME280;11272;50.104;8.754;2022-12-31T16:14:59;100394.78;;;17.75;56.43
22206;BME280;11272;50.104;8.754;2022-12-31T16:17:34;100386.91;;;17.72;56.50
22206;BME280;11272;50.104;8.754;2022-12-31T16:20:20;100387.03;;;17.68;56.67
22206;BME280;11272;50.104;8.754;2022-12-31T16:22:52;100373.72;;;17.67;56.62
22206;BME280;11272;50.104;8.754;2022-12-31T16:25:21;100377.41;;;17.64;56.60
22206;BME280;11272;50.104;8.754;2022-12-31T16:27:50;100377.56;;;17.61;56.87
22206;BME280;11272;50.104;8.754;2022-12-31T16:32:48;100387.66;;;17.56;57.31
22206;BME280;11272;50.104;8.754;2022-12-31T16:37:45;100388.91;;;17.49;57.46
22206;BME280;11272;50.104;8.754;2022-12-31T16:40:20;100384.63;;;17.45;57.36
22206;BME280;11272;50.104;8.754;2022-12-31T16:42:48;100390.16;;;17.42;57.76
22206;BME280;11272;50.104;8.754;2022-12-31T16:45:33;100401.06;;;17.39;58.04
22206;BME280;11272;50.104;8.754;2022-12-31T16:48:13;100394.09;;;17.35;58.12
22206;BME280;11272;50.104;8.754;2022-12-31T16:50:43;100384.31;;;17.34;58.20
22206;BME280;11272;50.104;8.754;2022-12-31T16:53:11;100394.25;;;17.32;58.30
22206;BME280;11272;50.104;8.754;2022-12-31T16:55:38;100388.22;;;17.27;58.53
22206;BME280;11272;50.104;8.754;2022-12-31T16:58:14;100398.09;;;17.26;58.58